sensor_id;sensor_type;location;lat;lon;timestamp;temperature;humidity
7194;DHT22;3638;48.820;9.244;2023-05-07T00:01:41;14.20;99.90
7194;DHT22;3638;48.820;9.244;2023-05-07T00:04:08;14.20;99.90
7194;DHT22;3638;48.820;9.244;2023-05-07T00:06:35;14.20;99.90
7194;DHT22;3638;48.820;9.244;2023-05-07T00:09:02;14.20;99.90
7194;DHT22;3638;48.820;9.244;2023-05-07T00:11:29;14.20;99.90
7194;DHT22;3638;48.820;9.244;2023-05-07T00:16:25;14.20;99.90
7194;DHT22;3638;48.820;9.244;2023-05-07T00:18:52;14.40;99.90
7194;DHT22;3638;48.820;9.244;2023-05-07T00:21:19;14.40;99.90
7194;DHT22;3638;48.820;9.244;2023-05-07T00:23:46;14.30;99.90
7194;DHT22;3638;48.820;9.244;2023-05-07T00:26:13;14.20;99.90
7194;DHT22;3638;48.820;9.244;2023-05-07T00:28:40;14.10;99.90
7194;DHT22;3638;48.820;9.244;2023-05-07T00:31:07;14.10;99.90
7194;DHT22;3638;48.820;9.244;2023-05-07T00:33:36;14.00;99.90
7194;DHT22;3638;48.820;9.244;2023-05-07T00:36:04;14.00;99.90
7194;DHT22;3638;48.820;9.244;2023-05-07T00:43:27;14.00;99.90
7194;DHT22;3638;48.820;9.244;2023-05-07T00:45:55;14.00;99.90
7194;DHT22;3638;48.820;9.244;2023-05-07T00:48:22;13.90;99.90
7194;DHT22;3638;48.820;9.244;2023-05-07T00:50:51;14.00;99.90
7194;DHT22;3638;48.820;9.244;2023-05-07T00:53:18;14.00;99.90
7194;DHT22;3638;48.820;9.244;2023-05-07T00:55:45;14.10;99.90
7194;DHT22;3638;48.820;9.244;2023-05-07T00:58:12;14.00;99.90
7194;DHT22;3638;48.820;9.244;2023-05-07T01:00:39;13.90;99.90
7194;DHT22;3638;48.820;9.244;2023-05-07T01:03:06;13.80;99.90
7194;DHT22;3638;48.820;9.244;2023-05-07T01:05:33;13.80;99.90
7194;DHT22;3638;48.820;9.244;2023-05-07T01:08:02;13.80;99.90
7194;DHT22;3638;48.820;9.244;2023-05-07T01:10:30;13.70;99.90
7194;DHT22;3638;48.820;9.244;2023-05-07T01:12:58;13.70;99.90
7194;DHT22;3638;48.820;9.244;2023-05-07T01:15:25;13.60;99.90
7194;DHT22;3638;48.820;9.244;2023-05-07T01:17:53;13.50;99.90
7194;DHT22;3638;48.820;9.244;2023-05-07T01:20:20;13.40;99.90
7194;DHT22;3638;48.820;9.244;2023-05-07T01:22:49;12.90;99.90
7194;DHT22;3638;48.820;9.244;2023-05-07T01:25:16;13.40;99.90
7194;DHT22;3638;48.820;9.244;2023-05-07T01:27:43;13.40;99.90
7194;DHT22;3638;48.820;9.244;2023-05-07T01:30:10;13.40;99.90
7194;DHT22;3638;48.820;9.244;2023-05-07T01:32:42;13.40;99.90
7194;DHT22;3638;48.820;9.244;2023-05-07T01:35:15;13.30;99.90
7194;DHT22;3638;48.820;9.244;2023-05-07T01:37:43;13.20;99.90
7194;DHT22;3638;48.820;9.244;2023-05-07T01:40:13;13.20;99.90
7194;DHT22;3638;48.820;9.244;2023-05-07T01:42:40;13.30;99.90
7194;DHT22;3638;48.820;9.244;2023-05-07T01:45:09;13.30;99.90
7194;DHT22;3638;48.820;9.244;2023-05-07T01:47:37;13.20;99.90
7194;DHT22;3638;48.820;9.244;2023-05-07T01:50:05;13.20;99.90
7194;DHT22;3638;48.820;9.244;2023-05-07T01:52:34;13.30;99.90
7194;DHT22;3638;48.820;9.244;2023-05-07T01:55:01;13.40;99.90
7194;DHT22;3638;48.820;9.244;2023-05-07T01:57:29;13.50;99.90
7194;DHT22;3638;48.820;9.244;2023-05-07T01:59:56;13.50;99.90
7194;DHT22;3638;48.820;9.244;2023-05-07T02:04:51;13.40;99.90
7194;DHT22;3638;48.820;9.244;2023-05-07T02:07:18;13.30;99.90
7194;DHT22;3638;48.820;9.244;2023-05-07T02:09:45;13.20;99.90
7194;DHT22;3638;48.820;9.244;2023-05-07T02:12:11;13.20;99.90
7194;DHT22;3638;48.820;9.244;2023-05-07T02:14:40;13.10;99.90
7194;DHT22;3638;48.820;9.244;2023-05-07T02:17:07;13.10;99.90
7194;DHT22;3638;48.820;9.244;2023-05-07T02:22:01;12.90;99.90
7194;DHT22;3638;48.820;9.244;2023-05-07T02:24:28;13.00;99.90
7194;DHT22;3638;48.820;9.244;2023-05-07T02:29:22;12.80;99.90
7194;DHT22;3638;48.820;9.244;2023-05-07T02:31:51;12.70;99.90
7194;DHT22;3638;48.820;9.244;2023-05-07T02:34:18;12.70;99.90
7194;DHT22;3638;48.820;9.244;2023-05-07T02:36:45;12.80;99.90
7194;DHT22;3638;48.820;9.244;2023-05-07T02:41:40;12.80;99.90
7194;DHT22;3638;48.820;9.244;2023-05-07T02:44:07;12.80;99.90
7194;DHT22;3638;48.820;9.244;2023-05-07T02:46:34;12.70;99.90
7194;DHT22;3638;48.820;9.244;2023-05-07T02:49:02;12.60;99.90
7194;DHT22;3638;48.820;9.244;2023-05-07T02:51:30;12.50;99.90
7194;DHT22;3638;48.820;9.244;2023-05-07T02:53:57;12.40;99.90
7194;DHT22;3638;48.820;9.244;2023-05-07T02:56:25;12.30;99.90
7194;DHT22;3638;48.820;9.244;2023-05-07T03:01:20;12.20;99.90
7194;DHT22;3638;48.820;9.244;2023-05-07T03:03:47;12.20;99.90
7194;DHT22;3638;48.820;9.244;2023-05-07T03:06:15;12.10;99.90
7194;DHT22;3638;48.820;9.244;2023-05-07T03:11:09;12.20;99.90
7194;DHT22;3638;48.820;9.244;2023-05-07T03:13:36;12.10;99.90
7194;DHT22;3638;48.820;9.244;2023-05-07T03:16:03;12.10;99.90
7194;DHT22;3638;48.820;9.244;2023-05-07T03:18:30;11.90;99.90
7194;DHT22;3638;48.820;9.244;2023-05-07T03:23:26;11.90;99.90
7194;DHT22;3638;48.820;9.244;2023-05-07T03:25:53;12.00;99.90
7194;DHT22;3638;48.820;9.244;2023-05-07T03:30:47;11.90;99.90
7194;DHT22;3638;48.820;9.244;2023-05-07T03:33:13;11.80;99.90
7194;DHT22;3638;48.820;9.244;2023-05-07T03:40:36;12.10;99.90
7194;DHT22;3638;48.820;9.244;2023-05-07T03:43:03;11.90;99.90
7194;DHT22;3638;48.820;9.244;2023-05-07T03:45:30;12.00;99.90
7194;DHT22;3638;48.820;9.244;2023-05-07T03:47:57;12.00;99.90
7194;DHT22;3638;48.820;9.244;2023-05-07T03:50:24;12.10;99.90
7194;DHT22;3638;48.820;9.244;2023-05-07T03:55:18;11.90;99.90
7194;DHT22;3638;48.820;9.244;2023-05-07T03:57:46;11.90;99.90
7194;DHT22;3638;48.820;9.244;2023-05-07T04:00:13;11.80;99.90
7194;DHT22;3638;48.820;9.244;2023-05-07T04:02:40;11.80;99.90
7194;DHT22;3638;48.820;9.244;2023-05-07T04:10:02;11.80;99.90
7194;DHT22;3638;48.820;9.244;2023-05-07T04:12:29;11.70;99.90
7194;DHT22;3638;48.820;9.244;2023-05-07T04:14:57;11.70;99.90
7194;DHT22;3638;48.820;9.244;2023-05-07T04:17:24;11.80;99.90
7194;DHT22;3638;48.820;9.244;2023-05-07T04:19:51;11.80;99.90
7194;DHT22;3638;48.820;9.244;2023-05-07T04:22:17;11.80;99.90
7194;DHT22;3638;48.820;9.244;2023-05-07T04:24:44;11.80;99.90
7194;DHT22;3638;48.820;9.244;2023-05-07T04:27:11;11.80;99.90
7194;DHT22;3638;48.820;9.244;2023-05-07T04:29:38;11.90;99.90
7194;DHT22;3638;48.820;9.244;2023-05-07T04:32:08;11.90;99.90
7194;DHT22;3638;48.820;9.244;2023-05-07T04:34:35;12.10;99.90
7194;DHT22;3638;48.820;9.244;2023-05-07T04:37:02;12.10;99.90
7194;DHT22;3638;48.820;9.244;2023-05-07T04:39:29;12.10;99.90
7194;DHT22;3638;48.820;9.244;2023-05-07T04:41:56;12.30;99.90
7194;DHT22;3638;48.820;9.244;2023-05-07T04:44:22;12.50;99.90
7194;DHT22;3638;48.820;9.244;2023-05-07T04:46:50;12.40;99.90
7194;DHT22;3638;48.820;9.244;2023-05-07T04:49:18;12.60;99.90
7194;DHT22;3638;48.820;9.244;2023-05-07T04:51:45;13.00;99.90
7194;DHT22;3638;48.820;9.244;2023-05-07T04:54:12;13.00;99.90
7194;DHT22;3638;48.820;9.244;2023-05-07T04:56:38;13.00;99.90
7194;DHT22;3638;48.820;9.244;2023-05-07T04:59:06;13.00;99.90
7194;DHT22;3638;48.820;9.244;2023-05-07T05:01:33;12.90;99.90
7194;DHT22;3638;48.820;9.244;2023-05-07T05:04:00;12.90;99.90
7194;DHT22;3638;48.820;9.244;2023-05-07T05:06:28;12.90;99.90
7194;DHT22;3638;48.820;9.244;2023-05-07T05:08:56;13.00;99.90
7194;DHT22;3638;48.820;9.244;2023-05-07T05:11:22;13.00;99.90
7194;DHT22;3638;48.820;9.244;2023-05-07T05:13:49;13.00;99.90
7194;DHT22;3638;48.820;9.244;2023-05-07T05:16:16;13.00;99.90
7194;DHT22;3638;48.820;9.244;2023-05-07T05:18:43;13.10;99.90
7194;DHT22;3638;48.820;9.244;2023-05-07T05:21:10;13.40;99.90
7194;DHT22;3638;48.820;9.244;2023-05-07T05:23:38;13.40;99.90
7194;DHT22;3638;48.820;9.244;2023-05-07T05:26:05;13.60;99.90
7194;DHT22;3638;48.820;9.244;2023-05-07T05:28:32;13.70;99.90
7194;DHT22;3638;48.820;9.244;2023-05-07T05:30:58;13.60;99.90
7194;DHT22;3638;48.820;9.244;2023-05-07T05:33:25;13.60;99.90
7194;DHT22;3638;48.820;9.244;2023-05-07T05:35:53;13.70;99.90
7194;DHT22;3638;48.820;9.244;2023-05-07T05:38:20;14.00;99.90
7194;DHT22;3638;48.820;9.244;2023-05-07T05:40:48;14.60;99.90
7194;DHT22;3638;48.820;9.244;2023-05-07T05:43:15;14.70;99.90
7194;DHT22;3638;48.820;9.244;2023-05-07T05:45:42;14.80;99.90
7194;DHT22;3638;48.820;9.244;2023-05-07T05:48:09;15.20;99.90
7194;DHT22;3638;48.820;9.244;2023-05-07T05:50:35;15.20;99.90
7194;DHT22;3638;48.820;9.244;2023-05-07T05:53:02;15.60;99.90
7194;DHT22;3638;48.820;9.244;2023-05-07T05:55:30;16.20;99.90
7194;DHT22;3638;48.820;9.244;2023-05-07T05:57:59;16.50;99.90
7194;DHT22;3638;48.820;9.244;2023-05-07T06:00:26;16.50;99.90
7194;DHT22;3638;48.820;9.244;2023-05-07T06:02:52;16.60;99.90
7194;DHT22;3638;48.820;9.244;2023-05-07T06:05:19;17.40;99.90
7194;DHT22;3638;48.820;9.244;2023-05-07T06:07:46;17.40;99.90
7194;DHT22;3638;48.820;9.244;2023-05-07T06:10:13;17.60;99.90
7194;DHT22;3638;48.820;9.244;2023-05-07T06:12:40;17.80;99.90
7194;DHT22;3638;48.820;9.244;2023-05-07T06:17:36;17.50;99.90
7194;DHT22;3638;48.820;9.244;2023-05-07T06:20:03;17.40;99.90
7194;DHT22;3638;48.820;9.244;2023-05-07T06:22:31;17.50;99.90
7194;DHT22;3638;48.820;9.244;2023-05-07T06:24:58;17.30;99.90
7194;DHT22;3638;48.820;9.244;2023-05-07T06:27:25;17.30;99.90
7194;DHT22;3638;48.820;9.244;2023-05-07T06:29:53;17.30;99.90
7194;DHT22;3638;48.820;9.244;2023-05-07T06:32:21;17.00;99.90
7194;DHT22;3638;48.820;9.244;2023-05-07T06:34:48;17.00;99.90
7194;DHT22;3638;48.820;9.244;2023-05-07T06:37:15;17.10;99.90
7194;DHT22;3638;48.820;9.244;2023-05-07T06:39:42;17.50;99.90
7194;DHT22;3638;48.820;9.244;2023-05-07T06:42:08;17.80;99.90
7194;DHT22;3638;48.820;9.244;2023-05-07T06:44:35;17.70;99.90
7194;DHT22;3638;48.820;9.244;2023-05-07T06:47:02;17.70;99.90
7194;DHT22;3638;48.820;9.244;2023-05-07T06:49:31;17.40;99.90
7194;DHT22;3638;48.820;9.244;2023-05-07T06:51:58;17.30;99.90
7194;DHT22;3638;48.820;9.244;2023-05-07T06:54:25;17.40;99.90
7194;DHT22;3638;48.820;9.244;2023-05-07T06:56:52;17.90;99.90
7194;DHT22;3638;48.820;9.244;2023-05-07T06:59:19;19.30;99.90
7194;DHT22;3638;48.820;9.244;2023-05-07T07:01:46;20.30;99.90
7194;DHT22;3638;48.820;9.244;2023-05-07T07:04:12;20.10;99.90
7194;DHT22;3638;48.820;9.244;2023-05-07T07:06:41;20.20;99.90
7194;DHT22;3638;48.820;9.244;2023-05-07T07:09:08;20.20;99.90
7194;DHT22;3638;48.820;9.244;2023-05-07T07:11:35;21.00;99.90
7194;DHT22;3638;48.820;9.244;2023-05-07T07:14:02;20.80;99.90
7194;DHT22;3638;48.820;9.244;2023-05-07T07:16:30;21.00;99.90
7194;DHT22;3638;48.820;9.244;2023-05-07T07:18:57;21.10;99.90
7194;DHT22;3638;48.820;9.244;2023-05-07T07:21:24;20.90;99.90
7194;DHT22;3638;48.820;9.244;2023-05-07T07:23:52;21.30;99.90
7194;DHT22;3638;48.820;9.244;2023-05-07T07:26:19;21.90;99.90
7194;DHT22;3638;48.820;9.244;2023-05-07T07:28:46;21.60;99.90
7194;DHT22;3638;48.820;9.244;2023-05-07T07:31:13;20.90;99.90
7194;DHT22;3638;48.820;9.244;2023-05-07T07:33:40;20.80;99.90
7194;DHT22;3638;48.820;9.244;2023-05-07T07:36:08;21.00;99.90
7194;DHT22;3638;48.820;9.244;2023-05-07T07:38:34;21.40;99.90
7194;DHT22;3638;48.820;9.244;2023-05-07T07:41:03;21.50;99.90
7194;DHT22;3638;48.820;9.244;2023-05-07T07:43:30;21.90;99.90
7194;DHT22;3638;48.820;9.244;2023-05-07T07:45:57;21.80;99.90
7194;DHT22;3638;48.820;9.244;2023-05-07T07:50:51;22.60;99.90
7194;DHT22;3638;48.820;9.244;2023-05-07T07:53:18;22.60;99.90
7194;DHT22;3638;48.820;9.244;2023-05-07T07:55:45;22.30;99.90
7194;DHT22;3638;48.820;9.244;2023-05-07T07:58:13;22.10;99.90
7194;DHT22;3638;48.820;9.244;2023-05-07T08:00:40;22.40;99.90
7194;DHT22;3638;48.820;9.244;2023-05-07T08:03:09;22.40;99.90
7194;DHT22;3638;48.820;9.244;2023-05-07T08:05:36;22.80;99.90
7194;DHT22;3638;48.820;9.244;2023-05-07T08:08:04;22.80;99.90
7194;DHT22;3638;48.820;9.244;2023-05-07T08:10:31;22.70;99.90
7194;DHT22;3638;48.820;9.244;2023-05-07T08:13:00;22.70;99.90
7194;DHT22;3638;48.820;9.244;2023-05-07T08:15:28;23.00;99.90
7194;DHT22;3638;48.820;9.244;2023-05-07T08:17:55;23.10;99.90
7194;DHT22;3638;48.820;9.244;2023-05-07T08:20:22;22.50;99.90
7194;DHT22;3638;48.820;9.244;2023-05-07T08:22:49;22.80;99.90
7194;DHT22;3638;48.820;9.244;2023-05-07T08:25:16;22.80;99.90
7194;DHT22;3638;48.820;9.244;2023-05-07T08:27:43;23.00;99.90
7194;DHT22;3638;48.820;9.244;2023-05-07T08:30:11;23.00;99.90
7194;DHT22;3638;48.820;9.244;2023-05-07T08:32:40;23.10;99.90
7194;DHT22;3638;48.820;9.244;2023-05-07T08:35:08;23.30;99.90
7194;DHT22;3638;48.820;9.244;2023-05-07T08:37:35;23.40;99.90
7194;DHT22;3638;48.820;9.244;2023-05-07T08:40:02;23.80;99.90
7194;DHT22;3638;48.820;9.244;2023-05-07T08:42:30;23.50;99.90
7194;DHT22;3638;48.820;9.244;2023-05-07T08:44:59;23.10;99.90
7194;DHT22;3638;48.820;9.244;2023-05-07T08:47:30;23.10;99.90
7194;DHT22;3638;48.820;9.244;2023-05-07T08:50:01;22.80;99.90
7194;DHT22;3638;48.820;9.244;2023-05-07T08:52:28;22.90;99.90
7194;DHT22;3638;48.820;9.244;2023-05-07T08:54:56;23.10;99.90
7194;DHT22;3638;48.820;9.244;2023-05-07T08:57:23;23.00;99.90
7194;DHT22;3638;48.820;9.244;2023-05-07T08:59:50;23.10;99.90
7194;DHT22;3638;48.820;9.244;2023-05-07T09:02:17;23.40;99.90
7194;DHT22;3638;48.820;9.244;2023-05-07T09:04:44;23.60;99.90
7194;DHT22;3638;48.820;9.244;2023-05-07T09:07:12;23.80;99.90
7194;DHT22;3638;48.820;9.244;2023-05-07T09:09:39;23.70;99.90
7194;DHT22;3638;48.820;9.244;2023-05-07T09:12:06;23.80;99.90
7194;DHT22;3638;48.820;9.244;2023-05-07T09:14:33;24.00;99.90
7194;DHT22;3638;48.820;9.244;2023-05-07T09:17:00;24.50;99.80
7194;DHT22;3638;48.820;9.244;2023-05-07T09:19:27;24.50;99.90
7194;DHT22;3638;48.820;9.244;2023-05-07T09:22:00;23.80;99.80
7194;DHT22;3638;48.820;9.244;2023-05-07T09:24:29;23.80;99.90
7194;DHT22;3638;48.820;9.244;2023-05-07T09:27:00;24.00;99.90
7194;DHT22;3638;48.820;9.244;2023-05-07T09:29:28;23.80;99.90
7194;DHT22;3638;48.820;9.244;2023-05-07T09:31:55;24.30;99.90
7194;DHT22;3638;48.820;9.244;2023-05-07T09:34:22;24.70;99.10
7194;DHT22;3638;48.820;9.244;2023-05-07T09:36:49;25.20;96.70
7194;DHT22;3638;48.820;9.244;2023-05-07T09:39:16;25.10;98.00
7194;DHT22;3638;48.820;9.244;2023-05-07T09:41:45;25.40;96.20
7194;DHT22;3638;48.820;9.244;2023-05-07T09:44:15;25.30;97.30
7194;DHT22;3638;48.820;9.244;2023-05-07T09:46:43;25.70;95.90
7194;DHT22;3638;48.820;9.244;2023-05-07T09:49:13;25.60;95.10
7194;DHT22;3638;48.820;9.244;2023-05-07T09:51:48;25.60;95.10
7194;DHT22;3638;48.820;9.244;2023-05-07T09:54:16;25.90;95.40
7194;DHT22;3638;48.820;9.244;2023-05-07T09:56:45;26.30;95.20
7194;DHT22;3638;48.820;9.244;2023-05-07T09:59:14;26.70;93.00
7194;DHT22;3638;48.820;9.244;2023-05-07T10:01:42;26.40;92.80
7194;DHT22;3638;48.820;9.244;2023-05-07T10:04:10;26.10;94.00
7194;DHT22;3638;48.820;9.244;2023-05-07T10:06:38;26.40;93.00
7194;DHT22;3638;48.820;9.244;2023-05-07T10:09:05;26.20;93.80
7194;DHT22;3638;48.820;9.244;2023-05-07T10:11:33;26.00;94.00
7194;DHT22;3638;48.820;9.244;2023-05-07T10:14:02;26.00;93.00
7194;DHT22;3638;48.820;9.244;2023-05-07T10:16:32;26.00;93.60
7194;DHT22;3638;48.820;9.244;2023-05-07T10:19:02;26.10;93.30
7194;DHT22;3638;48.820;9.244;2023-05-07T10:21:30;26.30;93.30
7194;DHT22;3638;48.820;9.244;2023-05-07T10:23:59;26.00;92.80
7194;DHT22;3638;48.820;9.244;2023-05-07T10:26:29;26.10;91.90
7194;DHT22;3638;48.820;9.244;2023-05-07T10:28:59;26.70;92.00
7194;DHT22;3638;48.820;9.244;2023-05-07T10:34:36;26.30;92.50
7194;DHT22;3638;48.820;9.244;2023-05-07T10:37:05;26.10;91.40
7194;DHT22;3638;48.820;9.244;2023-05-07T10:39:33;26.10;92.50
7194;DHT22;3638;48.820;9.244;2023-05-07T10:42:08;26.80;92.30
7194;DHT22;3638;48.820;9.244;2023-05-07T10:44:35;26.80;91.10
7194;DHT22;3638;48.820;9.244;2023-05-07T10:47:06;26.10;91.40
7194;DHT22;3638;48.820;9.244;2023-05-07T10:49:35;25.40;91.90
7194;DHT22;3638;48.820;9.244;2023-05-07T10:52:13;25.40;92.40
7194;DHT22;3638;48.820;9.244;2023-05-07T10:54:41;25.30;92.70
7194;DHT22;3638;48.820;9.244;2023-05-07T10:57:36;25.20;93.20
7194;DHT22;3638;48.820;9.244;2023-05-07T11:00:04;25.30;92.50
7194;DHT22;3638;48.820;9.244;2023-05-07T11:03:10;24.80;93.20
7194;DHT22;3638;48.820;9.244;2023-05-07T11:05:38;24.40;93.70
7194;DHT22;3638;48.820;9.244;2023-05-07T11:08:05;25.00;94.10
7194;DHT22;3638;48.820;9.244;2023-05-07T11:13:17;25.50;92.20
7194;DHT22;3638;48.820;9.244;2023-05-07T11:16:22;25.80;91.80
7194;DHT22;3638;48.820;9.244;2023-05-07T11:18:53;26.10;92.00
7194;DHT22;3638;48.820;9.244;2023-05-07T11:21:34;25.80;91.40
7194;DHT22;3638;48.820;9.244;2023-05-07T11:24:02;25.40;91.80
7194;DHT22;3638;48.820;9.244;2023-05-07T11:26:40;25.10;91.90
7194;DHT22;3638;48.820;9.244;2023-05-07T11:29:11;24.30;92.20
7194;DHT22;3638;48.820;9.244;2023-05-07T11:31:40;24.20;93.80
7194;DHT22;3638;48.820;9.244;2023-05-07T11:34:08;24.40;93.30
7194;DHT22;3638;48.820;9.244;2023-05-07T11:36:36;24.30;93.00
7194;DHT22;3638;48.820;9.244;2023-05-07T11:39:23;24.40;93.30
7194;DHT22;3638;48.820;9.244;2023-05-07T11:41:54;24.50;92.40
7194;DHT22;3638;48.820;9.244;2023-05-07T11:44:23;24.90;92.00
7194;DHT22;3638;48.820;9.244;2023-05-07T11:46:53;25.00;92.10
7194;DHT22;3638;48.820;9.244;2023-05-07T11:49:20;24.80;91.20
7194;DHT22;3638;48.820;9.244;2023-05-07T11:51:51;24.60;92.40
7194;DHT22;3638;48.820;9.244;2023-05-07T11:54:19;24.80;91.80
7194;DHT22;3638;48.820;9.244;2023-05-07T11:59:20;24.80;91.70
7194;DHT22;3638;48.820;9.244;2023-05-07T12:01:47;24.90;92.20
7194;DHT22;3638;48.820;9.244;2023-05-07T12:04:19;24.90;91.90
7194;DHT22;3638;48.820;9.244;2023-05-07T12:06:46;24.80;90.90
7194;DHT22;3638;48.820;9.244;2023-05-07T12:11:45;24.40;91.00
7194;DHT22;3638;48.820;9.244;2023-05-07T12:14:12;24.40;91.50
7194;DHT22;3638;48.820;9.244;2023-05-07T12:16:41;24.30;91.60
7194;DHT22;3638;48.820;9.244;2023-05-07T12:19:09;23.90;92.00
7194;DHT22;3638;48.820;9.244;2023-05-07T12:21:39;23.70;92.50
7194;DHT22;3638;48.820;9.244;2023-05-07T12:24:08;23.50;94.10
7194;DHT22;3638;48.820;9.244;2023-05-07T12:26:37;23.40;95.30
7194;DHT22;3638;48.820;9.244;2023-05-07T12:29:06;23.50;96.00
7194;DHT22;3638;48.820;9.244;2023-05-07T12:31:33;23.30;95.60
7194;DHT22;3638;48.820;9.244;2023-05-07T12:34:00;23.20;95.00
7194;DHT22;3638;48.820;9.244;2023-05-07T12:36:36;23.10;94.10
7194;DHT22;3638;48.820;9.244;2023-05-07T12:41:36;23.20;95.60
7194;DHT22;3638;48.820;9.244;2023-05-07T12:44:28;23.00;96.70
7194;DHT22;3638;48.820;9.244;2023-05-07T12:47:02;22.60;97.50
7194;DHT22;3638;48.820;9.244;2023-05-07T12:51:58;21.80;99.90
7194;DHT22;3638;48.820;9.244;2023-05-07T12:54:28;21.60;99.90
7194;DHT22;3638;48.820;9.244;2023-05-07T12:57:03;21.50;99.90
7194;DHT22;3638;48.820;9.244;2023-05-07T12:59:33;21.40;99.90
7194;DHT22;3638;48.820;9.244;2023-05-07T13:02:03;21.30;99.90
7194;DHT22;3638;48.820;9.244;2023-05-07T13:07:17;20.20;99.90
7194;DHT22;3638;48.820;9.244;2023-05-07T13:09:47;20.00;99.90
7194;DHT22;3638;48.820;9.244;2023-05-07T13:12:15;19.70;99.90
7194;DHT22;3638;48.820;9.244;2023-05-07T13:14:42;19.40;99.90
7194;DHT22;3638;48.820;9.244;2023-05-07T13:17:09;19.20;99.90
7194;DHT22;3638;48.820;9.244;2023-05-07T13:24:36;18.50;99.90
7194;DHT22;3638;48.820;9.244;2023-05-07T13:29:45;17.80;99.90
7194;DHT22;3638;48.820;9.244;2023-05-07T13:32:12;17.60;99.90
7194;DHT22;3638;48.820;9.244;2023-05-07T13:34:39;17.60;99.90
7194;DHT22;3638;48.820;9.244;2023-05-07T13:37:06;17.30;99.90
7194;DHT22;3638;48.820;9.244;2023-05-07T13:39:35;17.30;99.90
7194;DHT22;3638;48.820;9.244;2023-05-07T13:47:02;17.10;99.90
7194;DHT22;3638;48.820;9.244;2023-05-07T13:49:28;17.00;99.90
7194;DHT22;3638;48.820;9.244;2023-05-07T13:51:55;17.10;99.90
7194;DHT22;3638;48.820;9.244;2023-05-07T13:54:22;21.80;99.90
7194;DHT22;3638;48.820;9.244;2023-05-07T13:56:50;17.00;99.90
7194;DHT22;3638;48.820;9.244;2023-05-07T13:59:17;17.00;99.90
7194;DHT22;3638;48.820;9.244;2023-05-07T14:01:44;17.00;99.90
7194;DHT22;3638;48.820;9.244;2023-05-07T14:04:11;16.90;99.90
7194;DHT22;3638;48.820;9.244;2023-05-07T14:11:33;17.20;99.90
7194;DHT22;3638;48.820;9.244;2023-05-07T14:14:01;17.30;99.90
7194;DHT22;3638;48.820;9.244;2023-05-07T14:16:28;17.20;99.90
7194;DHT22;3638;48.820;9.244;2023-05-07T14:26:17;16.60;99.90
7194;DHT22;3638;48.820;9.244;2023-05-07T14:33:41;16.50;99.90
7194;DHT22;3638;48.820;9.244;2023-05-07T14:36:07;16.60;99.90
7194;DHT22;3638;48.820;9.244;2023-05-07T14:38:34;16.80;99.90
7194;DHT22;3638;48.820;9.244;2023-05-07T14:43:32;16.90;99.90
7194;DHT22;3638;48.820;9.244;2023-05-07T14:45:59;17.10;99.90
7194;DHT22;3638;48.820;9.244;2023-05-07T14:48:27;17.20;99.90
7194;DHT22;3638;48.820;9.244;2023-05-07T14:50:54;17.30;99.90
7194;DHT22;3638;48.820;9.244;2023-05-07T14:53:21;17.50;99.90
7194;DHT22;3638;48.820;9.244;2023-05-07T14:55:49;17.20;99.90
7194;DHT22;3638;48.820;9.244;2023-05-07T14:58:15;17.40;99.90
7194;DHT22;3638;48.820;9.244;2023-05-07T15:05:46;17.60;99.90
7194;DHT22;3638;48.820;9.244;2023-05-07T15:08:13;17.10;99.90
7194;DHT22;3638;48.820;9.244;2023-05-07T15:10:40;16.80;99.90
7194;DHT22;3638;48.820;9.244;2023-05-07T15:13:07;16.60;99.90
7194;DHT22;3638;48.820;9.244;2023-05-07T15:15:34;16.60;99.90
7194;DHT22;3638;48.820;9.244;2023-05-07T15:18:01;16.60;99.90
7194;DHT22;3638;48.820;9.244;2023-05-07T15:20:30;16.60;99.90
7194;DHT22;3638;48.820;9.244;2023-05-07T15:22:58;16.50;99.90
7194;DHT22;3638;48.820;9.244;2023-05-07T15:25:25;16.40;99.90
7194;DHT22;3638;48.820;9.244;2023-05-07T15:27:52;16.40;99.90
7194;DHT22;3638;48.820;9.244;2023-05-07T15:32:46;16.40;99.90
7194;DHT22;3638;48.820;9.244;2023-05-07T15:37:40;16.50;99.90
7194;DHT22;3638;48.820;9.244;2023-05-07T15:40:14;16.90;99.90
7194;DHT22;3638;48.820;9.244;2023-05-07T15:45:09;17.00;99.90
7194;DHT22;3638;48.820;9.244;2023-05-07T15:47:37;17.20;99.90
7194;DHT22;3638;48.820;9.244;2023-05-07T15:50:04;17.30;99.90
7194;DHT22;3638;48.820;9.244;2023-05-07T15:52:32;17.30;99.90
7194;DHT22;3638;48.820;9.244;2023-05-07T15:54:59;17.40;99.90
7194;DHT22;3638;48.820;9.244;2023-05-07T15:57:29;17.20;99.90
7194;DHT22;3638;48.820;9.244;2023-05-07T15:59:56;17.20;99.90
7194;DHT22;3638;48.820;9.244;2023-05-07T16:04:51;17.10;99.90
7194;DHT22;3638;48.820;9.244;2023-05-07T16:07:18;17.20;99.90
7194;DHT22;3638;48.820;9.244;2023-05-07T16:09:45;17.40;99.90
7194;DHT22;3638;48.820;9.244;2023-05-07T16:12:11;17.60;99.90
7194;DHT22;3638;48.820;9.244;2023-05-07T16:14:40;17.60;99.90
7194;DHT22;3638;48.820;9.244;2023-05-07T16:17:07;17.60;99.90
7194;DHT22;3638;48.820;9.244;2023-05-07T16:19:34;17.60;99.90
7194;DHT22;3638;48.820;9.244;2023-05-07T16:22:01;17.50;99.90
7194;DHT22;3638;48.820;9.244;2023-05-07T16:24:28;17.40;99.90
7194;DHT22;3638;48.820;9.244;2023-05-07T16:26:55;17.40;99.90
7194;DHT22;3638;48.820;9.244;2023-05-07T16:29:21;17.30;99.90
7194;DHT22;3638;48.820;9.244;2023-05-07T16:31:51;17.30;99.90
7194;DHT22;3638;48.820;9.244;2023-05-07T16:34:18;17.20;99.90
7194;DHT22;3638;48.820;9.244;2023-05-07T16:36:46;17.20;99.90
7194;DHT22;3638;48.820;9.244;2023-05-07T16:39:13;17.10;99.90
7194;DHT22;3638;48.820;9.244;2023-05-07T16:44:08;17.10;99.90
7194;DHT22;3638;48.820;9.244;2023-05-07T16:46:34;17.10;99.90
7194;DHT22;3638;48.820;9.244;2023-05-07T16:49:03;17.10;99.90
7194;DHT22;3638;48.820;9.244;2023-05-07T16:51:29;17.00;99.90
7194;DHT22;3638;48.820;9.244;2023-05-07T16:56:24;17.00;99.90
7194;DHT22;3638;48.820;9.244;2023-05-07T16:58:51;17.00;99.90
7194;DHT22;3638;48.820;9.244;2023-05-07T17:01:18;16.90;99.90
7194;DHT22;3638;48.820;9.244;2023-05-07T17:06:13;16.80;99.90
7194;DHT22;3638;48.820;9.244;2023-05-07T17:08:40;16.70;99.90
7194;DHT22;3638;48.820;9.244;2023-05-07T17:11:07;16.80;99.90
7194;DHT22;3638;48.820;9.244;2023-05-07T17:13:34;16.90;99.90
7194;DHT22;3638;48.820;9.244;2023-05-07T17:16:01;17.00;99.90
7194;DHT22;3638;48.820;9.244;2023-05-07T17:18:29;16.90;99.90
7194;DHT22;3638;48.820;9.244;2023-05-07T17:20:56;17.00;99.90
7194;DHT22;3638;48.820;9.244;2023-05-07T17:23:24;17.10;99.90
7194;DHT22;3638;48.820;9.244;2023-05-07T17:28:18;17.10;99.90
7194;DHT22;3638;48.820;9.244;2023-05-07T17:30:45;17.20;99.90
7194;DHT22;3638;48.820;9.244;2023-05-07T17:33:12;17.00;99.90
7194;DHT22;3638;48.820;9.244;2023-05-07T17:38:06;17.00;99.90
7194;DHT22;3638;48.820;9.244;2023-05-07T17:40:34;16.90;99.90
7194;DHT22;3638;48.820;9.244;2023-05-07T17:43:01;16.70;99.90
7194;DHT22;3638;48.820;9.244;2023-05-07T17:45:28;16.70;99.90
7194;DHT22;3638;48.820;9.244;2023-05-07T17:50:22;16.60;99.90
7194;DHT22;3638;48.820;9.244;2023-05-07T17:52:49;16.50;99.90
7194;DHT22;3638;48.820;9.244;2023-05-07T17:55:16;16.70;99.90
7194;DHT22;3638;48.820;9.244;2023-05-07T17:57:44;16.60;99.90
7194;DHT22;3638;48.820;9.244;2023-05-07T18:02:39;16.40;99.90
7194;DHT22;3638;48.820;9.244;2023-05-07T18:05:07;16.20;99.90
7194;DHT22;3638;48.820;9.244;2023-05-07T18:07:35;16.10;99.90
7194;DHT22;3638;48.820;9.244;2023-05-07T18:10:02;16.10;99.90
7194;DHT22;3638;48.820;9.244;2023-05-07T18:14:57;16.10;99.90
7194;DHT22;3638;48.820;9.244;2023-05-07T18:24:47;16.10;99.90